Time;durP1;ratioP1;P1;durP2;ratioP2;P2;SDS_P1;SDS_P2;PMS_P1;PMS_P2;Temp;Humidity;BMP_temperature;BMP_pressure;BME280_temperature;BME280_humidity;BME280_pressure;Samples;Min_cycle;Max_cycle;Signal;HPM_P1;HPM_P2
2022/07/31 00:02:46;;;;;;;1.20;0.80;;;28.70;48.80;;;;;;10395392;28;20061;-52
2022/07/31 00:07:48;;;;;;;2.53;0.82;;;28.70;48.90;;;;;;10395468;28;20057;-52
2022/07/31 00:12:51;;;;;;;1.77;1.02;;;28.70;49.00;;;;;;10398313;28;20058;-45
2022/07/31 00:17:53;;;;;;;2.17;0.73;;;28.60;49.00;;;;;;10397664;28;20140;-52
2022/07/31 00:22:56;;;;;;;2.35;0.95;;;28.60;49.10;;;;;;10391135;28;20038;-47
2022/07/31 00:27:59;;;;;;;2.47;0.88;;;28.60;49.20;;;;;;10395023;28;20052;-50
2022/07/31 00:33:01;;;;;;;2.45;0.80;;;28.60;49.30;;;;;;10396518;28;20363;-48
2022/07/31 00:38:03;;;;;;;1.83;0.77;;;28.50;49.30;;;;;;10395763;28;20123;-48
2022/07/31 00:43:06;;;;;;;2.30;0.95;;;28.60;49.30;;;;;;10397657;28;20049;-50
2022/07/31 00:48:08;;;;;;;3.40;0.98;;;28.60;49.20;;;;;;10398085;28;20135;-48
2022/07/31 00:53:10;;;;;;;3.33;0.75;;;28.60;49.20;;;;;;10404157;28;20455;-49
2022/07/31 00:58:13;;;;;;;1.45;0.80;;;28.50;49.10;;;;;;10401315;28;20131;-50
2022/07/31 01:03:15;;;;;;;1.60;0.73;;;28.50;49.20;;;;;;10402484;28;20053;-50
2022/07/31 01:08:17;;;;;;;1.77;0.73;;;28.50;49.10;;;;;;10394621;28;20094;-51
2022/07/31 01:13:30;;;;;;;2.55;1.00;;;28.50;49.20;;;;;;10402010;28;20038;-50
2022/07/31 01:18:34;;;;;;;1.35;0.80;;;28.50;49.30;;;;;;10401560;28;20060;-49
2022/07/31 01:23:50;;;;;;;2.97;0.80;;;28.40;49.30;;;;;;10401028;28;20108;-50
2022/07/31 01:29:06;;;;;;;2.15;1.10;;;28.40;49.40;;;;;;10403289;28;20501;-52
2022/07/31 01:34:15;;;;;;;1.73;0.70;;;28.40;49.50;;;;;;10405063;28;20053;-47
2022/07/31 01:39:18;;;;;;;1.10;0.75;;;28.40;49.60;;;;;;10405172;28;20207;-49
2022/07/31 01:44:25;;;;;;;1.92;0.80;;;28.40;49.60;;;;;;10403262;28;20570;-52
2022/07/31 01:49:28;;;;;;;1.60;0.63;;;28.30;49.50;;;;;;10402737;28;20722;-45
2022/07/31 01:54:31;;;;;;;2.33;0.70;;;28.30;49.60;;;;;;10402632;28;20079;-50
2022/07/31 01:59:37;;;;;;;1.05;0.68;;;28.30;49.60;;;;;;10402653;28;20052;-54
2022/07/31 02:04:40;;;;;;;1.52;0.80;;;28.30;49.70;;;;;;10402807;28;20051;-52
2022/07/31 02:09:44;;;;;;;1.73;0.60;;;28.20;49.70;;;;;;10402453;28;20457;-51
2022/07/31 02:14:49;;;;;;;0.68;0.45;;;28.20;49.80;;;;;;10403043;28;20493;-53
2022/07/31 02:19:52;;;;;;;1.10;0.50;;;28.20;49.90;;;;;;10403279;28;20587;-52
2022/07/31 02:24:54;;;;;;;2.70;0.70;;;28.20;49.80;;;;;;10402938;28;20072;-52
2022/07/31 02:30:00;;;;;;;1.05;0.60;;;28.20;49.90;;;;;;10401421;28;20457;-51
2022/07/31 02:35:03;;;;;;;1.65;0.50;;;28.20;49.90;;;;;;10402730;28;20083;-48
2022/07/31 02:40:07;;;;;;;1.45;0.70;;;28.10;49.90;;;;;;10402356;28;20144;-51
2022/07/31 02:45:11;;;;;;;1.05;0.55;;;28.10;50.00;;;;;;10402947;28;20083;-48
2022/07/31 02:50:13;;;;;;;1.02;0.75;;;28.10;50.00;;;;;;10395946;28;20076;-53
2022/07/31 02:55:15;;;;;;;0.40;0.30;;;28.10;50.00;;;;;;10401579;28;20057;-51
2022/07/31 03:00:22;;;;;;;1.48;0.65;;;28.00;50.00;;;;;;10400795;28;20048;-49
2022/07/31 03:05:25;;;;;;;1.95;0.85;;;28.10;50.10;;;;;;10402824;28;20465;-54
2022/07/31 03:10:27;;;;;;;1.58;0.60;;;28.00;50.10;;;;;;10401486;28;20486;-52
2022/07/31 03:15:31;;;;;;;0.90;0.65;;;28.00;50.10;;;;;;10401481;28;20072;-49
2022/07/31 03:20:34;;;;;;;0.73;0.52;;;28.00;50.20;;;;;;10401927;28;20152;-47
2022/07/31 03:25:36;;;;;;;0.68;0.40;;;28.00;50.20;;;;;;10400245;28;20470;-49
2022/07/31 03:30:40;;;;;;;1.42;0.75;;;28.00;50.30;;;;;;10400690;28;20470;-47
2022/07/31 03:35:41;;;;;;;4.85;1.52;;;27.90;50.90;;;;;;10400827;28;20073;-49
2022/07/31 03:40:43;;;;;;;1.58;1.10;;;27.90;50.40;;;;;;10399882;28;20057;-51
2022/07/31 03:45:47;;;;;;;0.68;0.50;;;27.90;50.40;;;;;;10398654;28;20091;-44
2022/07/31 03:50:50;;;;;;;7.10;3.00;;;27.90;50.40;;;;;;10400293;28;20916;-51
2022/07/31 03:55:53;;;;;;;1.25;0.52;;;27.90;50.60;;;;;;10398958;28;20041;-50
2022/07/31 04:00:56;;;;;;;0.90;0.63;;;27.80;50.50;;;;;;10392626;28;20454;-49
2022/07/31 04:05:59;;;;;;;2.05;0.60;;;27.80;50.70;;;;;;10400025;28;20053;-46
2022/07/31 04:11:01;;;;;;;1.23;0.85;;;27.80;50.80;;;;;;10398330;28;20041;-50
2022/07/31 04:16:04;;;;;;;4.28;1.42;;;27.70;50.70;;;;;;10400694;28;20045;-51
2022/07/31 04:21:06;;;;;;;0.98;0.68;;;27.80;51.30;;;;;;10399455;28;20038;-46
2022/07/31 04:26:08;;;;;;;1.55;0.85;;;27.80;50.80;;;;;;10401021;28;20041;-48
2022/07/31 04:31:11;;;;;;;4.63;1.60;;;27.80;50.90;;;;;;10407364;28;20114;-46
2022/07/31 04:36:13;;;;;;;1.92;0.60;;;27.70;50.90;;;;;;10406714;28;20045;-52
2022/07/31 04:41:16;;;;;;;1.15;0.70;;;27.70;50.90;;;;;;10406040;28;20140;-47
2022/07/31 04:46:20;;;;;;;2.90;0.70;;;27.70;50.90;;;;;;10405057;28;20152;-45
2022/07/31 04:51:23;;;;;;;1.60;0.52;;;27.70;51.00;;;;;;10405210;28;20458;-44
2022/07/31 04:56:36;;;;;;;3.28;0.80;;;27.70;51.10;;;;;;10404752;28;20482;-52
2022/07/31 05:01:40;;;;;;;0.93;0.60;;;27.70;51.10;;;;;;10406015;28;20051;-49
2022/07/31 05:06:44;;;;;;;1.85;1.42;;;27.70;51.10;;;;;;10405848;28;20068;-50
2022/07/31 05:11:47;;;;;;;1.73;0.60;;;27.60;51.10;;;;;;10405552;28;20065;-51
2022/07/31 05:16:50;;;;;;;1.30;0.70;;;27.60;51.20;;;;;;10406700;28;20046;-44
2022/07/31 05:21:52;;;;;;;2.08;0.85;;;27.60;51.20;;;;;;10405320;28;20081;-53
2022/07/31 05:26:54;;;;;;;1.83;0.60;;;27.60;51.30;;;;;;10406416;28;20115;-49
2022/07/31 05:31:58;;;;;;;2.47;0.80;;;27.60;51.40;;;;;;10406141;28;20046;-49
2022/07/31 05:37:00;;;;;;;1.65;1.00;;;27.50;51.30;;;;;;10404092;28;20141;-50
2022/07/31 05:42:02;;;;;;;2.75;0.88;;;27.60;51.50;;;;;;10405233;28;20045;-50
2022/07/31 05:47:08;;;;;;;1.58;0.90;;;27.50;51.40;;;;;;10405152;28;20497;-50
2022/07/31 05:52:10;;;;;;;3.72;0.88;;;27.50;51.50;;;;;;10399922;28;20134;-49
2022/07/31 05:57:12;;;;;;;2.53;1.05;;;27.50;51.50;;;;;;10398537;28;20087;-49
2022/07/31 06:02:15;;;;;;;7.90;2.55;;;27.50;51.70;;;;;;10398843;28;20263;-50
2022/07/31 06:07:17;;;;;;;6.85;1.38;;;27.60;51.80;;;;;;10401795;28;20049;-53
2022/07/31 06:12:19;;;;;;;3.30;1.17;;;27.50;51.70;;;;;;10403096;28;20493;-49
2022/07/31 06:17:22;;;;;;;1.50;1.08;;;27.50;52.00;;;;;;10403091;28;20477;-49
2022/07/31 06:22:24;;;;;;;2.17;1.35;;;27.50;51.90;;;;;;10402484;28;20053;-51
2022/07/31 06:27:26;;;;;;;5.57;1.27;;;27.50;52.00;;;;;;10396318;28;20548;-49
2022/07/31 06:32:29;;;;;;;4.47;2.15;;;27.50;52.10;;;;;;10392209;28;20049;-52
2022/07/31 06:37:31;;;;;;;4.72;1.67;;;27.50;52.50;;;;;;10391982;28;20049;-46
2022/07/31 06:42:33;;;;;;;2.88;1.30;;;27.50;52.50;;;;;;10392145;28;20053;-50
2022/07/31 06:47:37;;;;;;;4.60;1.48;;;27.50;52.70;;;;;;10394756;28;20061;-46
2022/07/31 06:52:39;;;;;;;5.75;1.40;;;27.50;52.80;;;;;;10394030;28;20045;-47
2022/07/31 06:57:41;;;;;;;2.35;1.20;;;27.50;53.10;;;;;;10393739;28;20063;-53
2022/07/31 07:02:44;;;;;;;12.32;2.03;;;27.50;53.00;;;;;;10385171;28;20045;-52
2022/07/31 07:07:46;;;;;;;3.97;1.80;;;27.50;53.10;;;;;;10392000;28;20048;-50
2022/07/31 07:12:48;;;;;;;13.18;3.40;;;27.50;53.30;;;;;;10395725;28;20132;-53
2022/07/31 07:17:51;;;;;;;4.57;1.40;;;27.50;53.60;;;;;;10394317;28;20098;-52
2022/07/31 07:22:53;;;;;;;4.88;1.42;;;27.40;53.80;;;;;;10394910;28;20041;-49
2022/07/31 07:27:55;;;;;;;9.27;2.40;;;27.40;54.10;;;;;;10382872;28;20146;-52
2022/07/31 07:32:58;;;;;;;4.65;1.90;;;27.40;54.20;;;;;;10390783;28;20580;-48
2022/07/31 07:38:00;;;;;;;3.85;1.60;;;27.40;54.40;;;;;;10390310;28;20435;-50
2022/07/31 07:43:02;;;;;;;6.78;2.00;;;27.50;54.90;;;;;;10392891;28;20052;-46
2022/07/31 07:48:06;;;;;;;5.28;1.60;;;27.40;54.60;;;;;;10394776;28;20045;-48
2022/07/31 07:53:08;;;;;;;6.63;1.95;;;27.40;54.70;;;;;;10384506;28;20699;-53
2022/07/31 07:58:10;;;;;;;7.22;2.75;;;27.40;54.70;;;;;;10392299;28;20053;-53
2022/07/31 08:03:15;;;;;;;5.88;2.63;;;27.40;55.50;;;;;;10390388;28;20180;-48
2022/07/31 08:08:17;;;;;;;9.43;2.72;;;27.40;54.90;;;;;;10397785;28;20500;-47
2022/07/31 08:13:19;;;;;;;4.57;1.70;;;27.40;54.70;;;;;;10404433;28;20113;-52
2022/07/31 08:18:22;;;;;;;6.45;2.17;;;27.40;55.00;;;;;;10401858;28;20050;-50
2022/07/31 08:23:28;;;;;;;5.05;2.33;;;27.30;55.20;;;;;;10399674;28;20428;-48
2022/07/31 08:28:31;;;;;;;4.50;2.03;;;27.30;55.40;;;;;;10401719;28;20049;-53
2022/07/31 08:33:40;;;;;;;14.73;3.08;;;27.30;55.60;;;;;;10397918;28;20046;-53
2022/07/31 08:38:42;;;;;;;7.75;2.95;;;27.30;55.60;;;;;;10396835;28;20052;-54
2022/07/31 08:43:44;;;;;;;7.05;2.97;;;27.30;55.80;;;;;;10396712;28;20068;-51
2022/07/31 08:48:52;;;;;;;7.70;3.58;;;27.30;55.50;;;;;;10400434;28;20664;-52
2022/07/31 08:53:54;;;;;;;7.57;2.63;;;27.30;55.20;;;;;;10391045;28;20145;-53
2022/07/31 08:58:56;;;;;;;14.43;4.22;;;27.30;55.10;;;;;;10396275;28;20049;-54
2022/07/31 09:04:00;;;;;;;9.25;4.45;;;27.30;55.50;;;;;;10396669;28;20044;-52
2022/07/31 09:09:01;;;;;;;10.73;4.60;;;27.30;55.20;;;;;;10397908;28;20431;-52
2022/07/31 09:14:06;;;;;;;10.52;4.65;;;27.20;55.50;;;;;;10396818;28;20045;-45
2022/07/31 09:19:09;;;;;;;13.32;4.68;;;27.20;56.30;;;;;;10391719;28;20037;-54
2022/07/31 09:24:25;;;;;;;12.13;4.88;;;27.20;56.90;;;;;;10394815;28;20081;-52
2022/07/31 09:29:34;;;;;;;16.95;5.80;;;27.10;56.60;;;;;;10396061;28;20558;-50
2022/07/31 09:34:38;;;;;;;13.73;5.20;;;27.10;57.20;;;;;;10394333;28;20171;-52
2022/07/31 09:39:41;;;;;;;8.45;4.20;;;27.10;56.50;;;;;;10387404;28;20140;-53
2022/07/31 09:44:44;;;;;;;11.38;4.35;;;27.10;56.70;;;;;;10384551;28;20140;-50
2022/07/31 09:49:53;;;;;;;14.57;4.50;;;27.10;57.00;;;;;;10383835;28;20208;-52
2022/07/31 09:55:04;;;;;;;10.23;3.53;;;27.00;56.80;;;;;;10391116;28;20124;-47
2022/07/31 10:00:07;;;;;;;17.77;4.75;;;27.00;56.60;;;;;;10392104;28;20061;-52
2022/07/31 10:05:11;;;;;;;10.00;3.67;;;27.10;56.50;;;;;;10392308;28;20117;-51
2022/07/31 10:10:15;;;;;;;9.57;4.00;;;27.00;57.00;;;;;;10392703;28;21012;-50
2022/07/31 10:15:19;;;;;;;13.43;3.65;;;27.00;56.70;;;;;;10381705;28;20057;-51
2022/07/31 10:20:24;;;;;;;6.40;2.90;;;27.00;56.40;;;;;;10393130;28;20041;-52
2022/07/31 10:25:29;;;;;;;13.45;3.42;;;27.00;56.50;;;;;;10396512;28;20045;-51
2022/07/31 10:30:30;;;;;;;8.45;3.10;;;27.00;56.40;;;;;;10393954;28;20838;-49
2022/07/31 10:35:40;;;;;;;8.27;3.35;;;27.00;56.20;;;;;;10394232;28;20124;-54
2022/07/31 10:40:47;;;;;;;9.88;2.85;;;27.10;56.60;;;;;;10394062;28;20144;-50
2022/07/31 10:45:51;;;;;;;12.50;3.83;;;27.00;56.30;;;;;;10392576;28;20371;-48
2022/07/31 10:51:03;;;;;;;11.95;3.80;;;27.00;56.40;;;;;;10391610;28;20128;-52
2022/07/31 10:56:09;;;;;;;12.85;4.20;;;27.00;56.50;;;;;;10396343;28;20183;-52
2022/07/31 11:01:11;;;;;;;9.95;3.90;;;27.00;56.60;;;;;;10381140;28;20057;-50
2022/07/31 11:06:16;;;;;;;12.35;4.07;;;27.00;56.40;;;;;;10385492;28;20485;-54
2022/07/31 11:11:18;;;;;;;9.68;3.05;;;26.90;56.50;;;;;;10390078;28;20059;-50
2022/07/31 11:16:21;;;;;;;12.55;4.18;;;27.10;56.40;;;;;;10392586;28;20161;-45
2022/07/31 11:21:31;;;;;;;11.10;3.50;;;27.00;56.60;;;;;;10392856;28;20076;-52
2022/07/31 11:26:34;;;;;;;13.87;4.43;;;27.00;57.00;;;;;;10392385;28;20486;-50
2022/07/31 11:31:35;;;;;;;7.88;3.15;;;27.10;56.30;;;;;;10392129;28;20050;-53
2022/07/31 11:36:43;;;;;;;12.85;3.10;;;27.10;56.10;;;;;;10392234;28;20115;-51
2022/07/31 11:41:47;;;;;;;7.72;2.53;;;27.10;56.70;;;;;;10389531;28;20041;-53
2022/07/31 11:46:50;;;;;;;10.43;3.17;;;27.00;57.20;;;;;;10391745;28;20064;-49
2022/07/31 11:52:00;;;;;;;8.00;2.50;;;27.10;56.90;;;;;;10392988;28;20038;-51
2022/07/31 11:57:02;;;;;;;10.57;2.85;;;27.10;56.50;;;;;;10392163;28;20072;-49
2022/07/31 12:02:05;;;;;;;14.30;2.92;;;27.20;56.20;;;;;;10393139;28;20119;-50
2022/07/31 12:07:10;;;;;;;7.75;2.70;;;27.20;56.50;;;;;;10385644;28;20049;-53
2022/07/31 12:12:11;;;;;;;9.63;2.63;;;27.10;56.40;;;;;;10387962;28;20073;-52
2022/07/31 12:17:20;;;;;;;11.48;3.17;;;27.20;56.30;;;;;;10383375;28;20041;-51
2022/07/31 12:22:23;;;;;;;10.68;3.53;;;27.10;56.70;;;;;;10384843;28;20071;-51
2022/07/31 12:27:25;;;;;;;11.27;3.38;;;27.10;56.50;;;;;;10386760;28;20132;-50
2022/07/31 12:32:28;;;;;;;7.53;3.00;;;27.10;56.50;;;;;;10381909;28;20058;-50
2022/07/31 12:37:41;;;;;;;10.10;2.72;;;27.00;56.40;;;;;;10382407;28;20410;-49
2022/07/31 12:42:45;;;;;;;14.38;3.67;;;27.10;56.90;;;;;;10387111;28;20179;-52
2022/07/31 12:47:47;;;;;;;16.83;4.45;;;27.10;56.80;;;;;;10392788;28;20057;-52
2022/07/31 12:52:50;;;;;;;8.40;2.25;;;27.00;56.80;;;;;;10397053;28;20037;-51
2022/07/31 12:57:53;;;;;;;9.40;3.10;;;27.10;57.00;;;;;;10396025;28;20139;-52
2022/07/31 13:02:57;;;;;;;12.90;3.88;;;27.10;56.80;;;;;;10397004;28;20098;-52
2022/07/31 13:08:00;;;;;;;12.30;3.22;;;27.00;56.80;;;;;;10396039;28;20119;-51
2022/07/31 13:13:02;;;;;;;11.15;3.53;;;27.00;56.70;;;;;;10396233;28;20054;-49
2022/07/31 13:18:04;;;;;;;10.73;3.60;;;27.00;57.00;;;;;;10390799;28;20127;-54
2022/07/31 13:23:07;;;;;;;13.07;3.83;;;27.00;57.30;;;;;;10391440;28;20072;-49
2022/07/31 13:28:09;;;;;;;10.77;2.83;;;27.10;56.50;;;;;;10396513;28;20823;-52
2022/07/31 13:33:11;;;;;;;6.88;2.58;;;27.00;57.10;;;;;;10391397;28;20964;-51
2022/07/31 13:38:14;;;;;;;9.45;2.88;;;27.00;57.10;;;;;;10386652;28;20591;-48
2022/07/31 13:43:17;;;;;;;10.02;3.10;;;27.00;57.10;;;;;;10393744;28;20152;-51
2022/07/31 13:48:19;;;;;;;12.13;3.20;;;27.10;57.10;;;;;;10389738;28;20037;-54
2022/07/31 13:53:22;;;;;;;13.45;4.68;;;27.00;57.20;;;;;;10391618;28;20038;-51
2022/07/31 13:58:25;;;;;;;12.23;3.17;;;27.10;57.20;;;;;;10391329;28;20067;-52
2022/07/31 14:03:27;;;;;;;6.85;2.53;;;27.00;57.00;;;;;;10391146;28;20124;-52
2022/07/31 14:08:31;;;;;;;12.50;3.30;;;27.10;56.80;;;;;;10389051;28;20076;-44
2022/07/31 14:13:32;;;;;;;11.23;3.22;;;27.00;57.10;;;;;;10392533;28;20050;-53
2022/07/31 14:18:34;;;;;;;6.15;2.47;;;27.10;57.10;;;;;;10390440;28;20060;-47
2022/07/31 14:23:38;;;;;;;16.27;3.85;;;27.10;57.20;;;;;;10389014;28;20041;-51
2022/07/31 14:28:39;;;;;;;15.88;3.33;;;27.00;57.40;;;;;;10393001;28;20496;-53
2022/07/31 14:33:41;;;;;;;11.43;3.17;;;27.00;57.20;;;;;;10391921;28;21182;-52
2022/07/31 14:38:45;;;;;;;9.50;3.33;;;27.00;57.30;;;;;;10388854;28;20701;-51
2022/07/31 14:43:47;;;;;;;13.70;3.67;;;26.90;57.30;;;;;;10390432;28;20053;-53
2022/07/31 14:48:48;;;;;;;15.10;4.07;;;27.00;57.30;;;;;;10386305;28;20044;-54
2022/07/31 14:53:52;;;;;;;15.95;4.03;;;27.00;57.50;;;;;;10379078;28;21265;-51
2022/07/31 14:58:54;;;;;;;15.05;3.55;;;27.00;57.20;;;;;;10378084;28;20056;-49
2022/07/31 15:03:56;;;;;;;7.07;2.35;;;27.00;57.00;;;;;;10388039;28;20201;-54
2022/07/31 15:08:59;;;;;;;23.30;5.30;;;27.00;57.10;;;;;;10388783;28;20409;-52
2022/07/31 15:14:01;;;;;;;15.52;3.72;;;27.00;57.00;;;;;;10392260;28;20271;-51
2022/07/31 15:19:03;;;;;;;12.93;3.17;;;27.00;57.10;;;;;;10391039;28;20044;-53
2022/07/31 15:24:06;;;;;;;16.55;3.90;;;27.10;57.60;;;;;;10389174;28;20084;-51
2022/07/31 15:29:08;;;;;;;11.88;3.38;;;27.10;57.40;;;;;;10391227;28;20222;-50
2022/07/31 15:34:10;;;;;;;16.70;4.32;;;27.00;58.30;;;;;;10390440;28;20498;-55
2022/07/31 15:39:14;;;;;;;19.33;4.85;;;27.00;57.80;;;;;;10385657;28;20445;-54
2022/07/31 15:44:16;;;;;;;12.27;3.13;;;27.00;57.90;;;;;;10386533;28;20081;-54
2022/07/31 15:49:18;;;;;;;14.95;3.83;;;27.00;57.80;;;;;;10389864;28;20052;-50
2022/07/31 15:54:22;;;;;;;11.13;3.05;;;27.10;57.80;;;;;;10377617;28;20136;-54
2022/07/31 15:59:24;;;;;;;18.10;3.72;;;27.10;57.70;;;;;;10374596;28;20045;-50
2022/07/31 16:04:26;;;;;;;18.27;4.05;;;27.10;58.30;;;;;;10385309;28;20125;-52
2022/07/31 16:09:30;;;;;;;17.35;3.53;;;27.10;58.10;;;;;;10388287;28;20046;-47
2022/07/31 16:14:31;;;;;;;18.77;3.92;;;27.10;58.10;;;;;;10382290;28;20046;-50
2022/07/31 16:19:33;;;;;;;12.15;3.28;;;27.10;58.20;;;;;;10389727;28;20625;-49
2022/07/31 16:24:36;;;;;;;10.35;3.10;;;27.10;58.20;;;;;;10398502;28;20089;-51
2022/07/31 16:29:38;;;;;;;24.33;4.88;;;27.00;58.30;;;;;;10391353;28;20042;-46
2022/07/31 16:34:40;;;;;;;16.02;4.25;;;27.00;58.10;;;;;;10396963;28;20104;-49
2022/07/31 16:39:44;;;;;;;15.48;4.03;;;27.00;58.20;;;;;;10398020;28;20133;-51
2022/07/31 16:44:46;;;;;;;16.35;4.45;;;27.00;58.20;;;;;;10396207;28;20045;-54
2022/07/31 16:49:48;;;;;;;19.70;5.60;;;27.00;58.30;;;;;;10395937;28;20113;-50
2022/07/31 16:54:51;;;;;;;22.33;4.55;;;27.00;58.50;;;;;;10387861;28;20049;-49
2022/07/31 16:59:53;;;;;;;13.45;4.78;;;27.00;58.40;;;;;;10382908;28;20055;-47
2022/07/31 17:04:55;;;;;;;14.73;3.70;;;27.00;58.40;;;;;;10392324;28;20545;-49
2022/07/31 17:09:58;;;;;;;18.05;4.13;;;27.00;58.20;;;;;;10389053;28;20045;-54
2022/07/31 17:15:00;;;;;;;20.60;4.13;;;27.00;58.60;;;;;;10389015;28;20132;-51
2022/07/31 17:20:02;;;;;;;12.55;3.58;;;27.00;59.10;;;;;;10395969;28;20576;-50
2022/07/31 17:25:06;;;;;;;18.17;3.85;;;27.00;58.80;;;;;;10396722;28;20047;-51
2022/07/31 17:30:09;;;;;;;17.85;4.70;;;27.00;58.80;;;;;;10392947;28;20670;-50
2022/07/31 17:35:11;;;;;;;16.08;5.20;;;27.00;58.90;;;;;;10391081;28;20210;-47
2022/07/31 17:40:14;;;;;;;18.88;4.32;;;26.90;59.20;;;;;;10385147;28;20645;-52
2022/07/31 17:45:16;;;;;;;10.27;3.00;;;27.00;59.20;;;;;;10389253;28;20136;-51
2022/07/31 17:50:18;;;;;;;13.82;4.60;;;27.00;59.00;;;;;;10392520;28;20128;-49
2022/07/31 17:55:22;;;;;;;28.40;6.28;;;27.00;58.90;;;;;;10392419;28;20055;-47
2022/07/31 18:00:24;;;;;;;6.80;2.50;;;27.00;58.80;;;;;;10383612;28;20207;-47
2022/07/31 18:05:26;;;;;;;23.25;4.57;;;27.00;58.70;;;;;;10390760;28;20132;-47
2022/07/31 18:10:29;;;;;;;13.90;4.18;;;27.00;58.90;;;;;;10382823;28;20052;-52
2022/07/31 18:15:31;;;;;;;13.63;2.97;;;27.00;59.00;;;;;;10384007;28;20058;-57
2022/07/31 18:20:33;;;;;;;20.58;5.10;;;27.00;59.00;;;;;;10390081;28;20136;-48
2022/07/31 18:25:37;;;;;;;10.45;3.28;;;27.00;59.40;;;;;;10392807;28;20124;-51
2022/07/31 18:30:40;;;;;;;11.57;3.65;;;26.90;59.30;;;;;;10390463;28;20077;-53
2022/07/31 18:35:42;;;;;;;9.55;3.53;;;26.90;59.30;;;;;;10383618;28;20056;-51
2022/07/31 18:40:45;;;;;;;12.55;3.47;;;26.90;59.50;;;;;;10387743;28;20897;-54
2022/07/31 18:45:47;;;;;;;10.80;3.25;;;26.90;59.50;;;;;;10390440;28;20136;-54
2022/07/31 18:50:50;;;;;;;10.50;3.70;;;26.90;59.80;;;;;;10392421;28;20591;-51
2022/07/31 18:55:53;;;;;;;18.08;4.97;;;26.90;60.10;;;;;;10384031;28;20112;-53
2022/07/31 19:00:55;;;;;;;16.33;5.57;;;26.90;60.30;;;;;;10392942;28;20124;-50
2022/07/31 19:05:57;;;;;;;19.17;5.35;;;26.90;60.60;;;;;;10379059;28;20065;-54
2022/07/31 19:11:00;;;;;;;14.32;4.57;;;26.90;60.90;;;;;;10391144;28;20565;-49
2022/07/31 19:16:03;;;;;;;18.90;4.85;;;26.90;61.20;;;;;;10386712;28;20517;-50
2022/07/31 19:21:05;;;;;;;22.67;5.60;;;26.90;60.90;;;;;;10387419;28;20047;-53
2022/07/31 19:26:09;;;;;;;18.08;4.35;;;26.90;61.30;;;;;;10389611;28;20069;-50
2022/07/31 19:31:12;;;;;;;16.83;4.72;;;26.90;61.40;;;;;;10391295;28;20130;-53
2022/07/31 19:36:14;;;;;;;16.05;4.55;;;26.90;61.40;;;;;;10389575;28;20695;-52
2022/07/31 19:41:17;;;;;;;12.95;3.65;;;26.90;61.20;;;;;;10390341;28;20586;-49
2022/07/31 19:46:19;;;;;;;19.58;4.65;;;26.90;60.90;;;;;;10388803;28;20037;-48
2022/07/31 19:51:21;;;;;;;11.98;4.07;;;26.90;60.70;;;;;;10389114;28;20049;-51
2022/07/31 19:56:24;;;;;;;25.08;5.30;;;26.80;60.50;;;;;;10399763;28;20478;-51
2022/07/31 20:01:26;;;;;;;15.75;3.20;;;26.90;60.60;;;;;;10400246;28;20041;-51
2022/07/31 20:06:28;;;;;;;13.27;3.45;;;26.90;60.50;;;;;;10405333;28;20131;-54
2022/07/31 20:11:31;;;;;;;17.85;4.68;;;26.90;60.20;;;;;;10403026;28;20088;-51
2022/07/31 20:16:33;;;;;;;16.35;4.00;;;26.80;60.90;;;;;;10401672;28;20069;-50
2022/07/31 20:21:36;;;;;;;20.33;4.07;;;26.80;60.40;;;;;;10404791;28;20045;-53
2022/07/31 20:26:39;;;;;;;16.27;4.57;;;26.80;60.50;;;;;;10404714;28;20041;-50
2022/07/31 20:31:41;;;;;;;13.18;4.13;;;26.80;60.40;;;;;;10403588;28;20041;-54
2022/07/31 20:36:43;;;;;;;21.67;3.95;;;26.80;60.60;;;;;;10404053;28;20628;-53
2022/07/31 20:41:46;;;;;;;11.48;3.08;;;26.80;60.50;;;;;;10404433;28;20057;-53
2022/07/31 20:46:48;;;;;;;11.63;3.55;;;26.80;60.50;;;;;;10402729;28;20052;-52
2022/07/31 20:51:52;;;;;;;5.78;2.47;;;26.80;60.30;;;;;;10404008;28;20104;-51
2022/07/31 20:56:55;;;;;;;7.03;2.83;;;26.80;60.30;;;;;;10401184;28;20045;-52
2022/07/31 21:01:57;;;;;;;7.57;2.28;;;26.80;60.20;;;;;;10400228;28;20164;-54
2022/07/31 21:06:59;;;;;;;6.70;2.20;;;26.80;60.30;;;;;;10398785;28;20136;-48
2022/07/31 21:12:02;;;;;;;7.97;2.40;;;26.80;60.30;;;;;;10396287;28;20057;-53
2022/07/31 21:17:04;;;;;;;5.07;2.20;;;26.70;60.10;;;;;;10393320;28;20285;-49
2022/07/31 21:22:06;;;;;;;7.70;2.00;;;26.70;60.10;;;;;;10390830;28;20048;-52
2022/07/31 21:27:11;;;;;;;4.53;1.77;;;26.80;60.00;;;;;;10394981;28;20449;-52
2022/07/31 21:32:14;;;;;;;2.00;1.33;;;26.70;59.90;;;;;;10395405;28;20148;-48
2022/07/31 21:37:17;;;;;;;4.93;2.13;;;26.70;60.10;;;;;;10392308;28;20050;-53
2022/07/31 21:42:20;;;;;;;2.70;1.70;;;26.70;59.80;;;;;;10393575;28;20050;-51
2022/07/31 21:47:25;;;;;;;4.25;2.40;;;26.70;59.90;;;;;;10371202;28;20048;-52
2022/07/31 21:52:28;;;;;;;3.90;2.92;;;26.70;59.90;;;;;;10391463;28;20132;-50
2022/07/31 21:57:32;;;;;;;4.22;2.33;;;26.70;59.90;;;;;;10393183;28;20740;-52
2022/07/31 22:02:34;;;;;;;2.90;2.13;;;26.70;59.80;;;;;;10391271;28;20438;-50
2022/07/31 22:07:41;;;;;;;3.20;1.83;;;26.70;59.70;;;;;;10395691;28;20088;-51
2022/07/31 22:12:45;;;;;;;2.70;1.75;;;26.60;59.70;;;;;;10395348;28;20164;-49
2022/07/31 22:17:47;;;;;;;2.28;1.75;;;26.70;59.60;;;;;;10395184;28;20120;-54
2022/07/31 22:22:50;;;;;;;2.38;1.80;;;26.60;59.60;;;;;;10393537;28;20660;-54
2022/07/31 22:27:56;;;;;;;2.15;1.58;;;26.60;59.40;;;;;;10389381;28;20434;-49
2022/07/31 22:32:59;;;;;;;2.63;1.60;;;26.60;59.40;;;;;;10392451;28;20118;-54
2022/07/31 22:38:01;;;;;;;2.67;1.67;;;26.60;59.40;;;;;;10393760;28;20049;-51
2022/07/31 22:43:05;;;;;;;2.47;1.42;;;26.60;59.90;;;;;;10392607;28;20084;-44
2022/07/31 22:48:08;;;;;;;2.22;1.70;;;26.50;59.30;;;;;;10394107;28;20043;-51
2022/07/31 22:53:10;;;;;;;2.42;1.88;;;26.60;59.20;;;;;;10389627;28;20613;-53
2022/07/31 22:58:14;;;;;;;2.63;1.70;;;26.50;59.20;;;;;;10391437;28;20119;-52
2022/07/31 23:03:15;;;;;;;4.78;2.92;;;26.60;59.30;;;;;;10390566;28;20041;-51
2022/07/31 23:08:17;;;;;;;4.25;2.28;;;26.50;59.40;;;;;;10393255;28;20046;-48
2022/07/31 23:13:20;;;;;;;2.92;1.65;;;26.50;59.30;;;;;;10393050;28;20119;-53
2022/07/31 23:18:22;;;;;;;4.07;1.60;;;26.50;59.10;;;;;;10392969;28;20044;-50
2022/07/31 23:23:24;;;;;;;3.53;1.98;;;26.50;59.10;;;;;;10392536;28;20053;-53
2022/07/31 23:28:27;;;;;;;2.70;1.85;;;26.50;59.30;;;;;;10393167;28;20132;-54
2022/07/31 23:33:29;;;;;;;5.00;2.10;;;26.50;59.30;;;;;;10392991;28;20071;-51
2022/07/31 23:38:31;;;;;;;1.90;1.58;;;26.50;59.10;;;;;;10393486;28;20132;-50
2022/07/31 23:43:34;;;;;;;1.85;1.63;;;26.50;59.20;;;;;;10390649;28;20148;-50
2022/07/31 23:48:36;;;;;;;3.10;1.80;;;26.40;59.30;;;;;;10391437;28;20073;-51
2022/07/31 23:53:38;;;;;;;2.22;1.45;;;26.50;59.30;;;;;;10392184;28;20053;-52
2022/07/31 23:58:41;;;;;;;8.45;3.28;;;26.50;59.40;;;;;;10393378;28;20073;-50
